Time;durP1;ratioP1;P1;durP2;ratioP2;P2;SDS_P1;SDS_P2;PMS_P1;PMS_P2;Temp;Humidity;BMP_temperature;BMP_pressure;BME280_temperature;BME280_humidity;BME280_pressure;Samples;Min_cycle;Max_cycle;Signal;HPM_P1;HPM_P2
2023/04/04 00:00:35;;;;;;;0.40;0.40;;;0.80;83.90;;;;;;5033132;28;20457;-73
2023/04/04 00:03:01;;;;;;;1.35;0.95;;;0.90;83.80;;;;;;5032957;28;20639;-73
2023/04/04 00:05:27;;;;;;;0.30;0.30;;;1.00;83.10;;;;;;5033401;28;20213;-73
2023/04/04 00:07:53;;;;;;;0.30;0.30;;;1.00;84.10;;;;;;5033502;28;20176;-73
2023/04/04 00:10:18;;;;;;;1.80;1.70;;;0.70;84.70;;;;;;5033027;28;20453;-73
2023/04/04 00:12:45;;;;;;;0.40;0.40;;;0.80;82.80;;;;;;5033025;28;20205;-73
2023/04/04 00:15:11;;;;;;;0.60;0.60;;;1.00;83.50;;;;;;5033122;28;20519;-73
2023/04/04 00:17:37;;;;;;;0.40;0.40;;;0.80;82.70;;;;;;5033172;28;20508;-73
2023/04/04 00:20:03;;;;;;;1.23;1.23;;;0.80;82.60;;;;;;5033339;28;20349;-73
2023/04/04 00:22:28;;;;;;;0.40;0.40;;;0.80;82.20;;;;;;5033012;28;20489;-73
2023/04/04 00:24:54;;;;;;;0.30;0.30;;;0.60;81.70;;;;;;5036069;28;20175;-73
2023/04/04 00:27:20;;;;;;;0.40;0.40;;;0.50;83.00;;;;;;5037160;28;20931;-73
2023/04/04 00:29:46;;;;;;;0.30;0.30;;;0.60;84.40;;;;;;5037067;28;20191;-73
2023/04/04 00:32:11;;;;;;;0.70;0.70;;;0.70;84.10;;;;;;5036764;28;20454;-73
2023/04/04 00:34:37;;;;;;;0.30;0.30;;;0.60;83.40;;;;;;5036715;28;20177;-73
2023/04/04 00:37:06;;;;;;;0.30;0.30;;;0.40;83.60;;;;;;5037070;28;20169;-74
2023/04/04 00:39:32;;;;;;;0.65;0.65;;;0.30;91.50;;;;;;5036813;28;20250;-73
2023/04/04 00:41:58;;;;;;;0.50;0.50;;;0.30;85.60;;;;;;5036724;28;20171;-73
2023/04/04 00:44:24;;;;;;;0.93;0.50;;;0.30;86.10;;;;;;5036561;28;20171;-73
2023/04/04 00:46:51;;;;;;;2.70;1.63;;;0.20;84.20;;;;;;5036554;28;20546;-73
2023/04/04 00:49:17;;;;;;;0.40;0.40;;;0.10;84.10;;;;;;5036816;28;20166;-73
2023/04/04 00:51:42;;;;;;;0.40;0.40;;;0.10;84.20;;;;;;5036404;28;20689;-73
2023/04/04 00:54:08;;;;;;;0.63;0.63;;;0.10;84.60;;;;;;5036477;28;20300;-73
2023/04/04 00:56:37;;;;;;;0.30;0.30;;;-0.20;84.90;;;;;;5036596;28;20228;-73
2023/04/04 00:59:03;;;;;;;0.40;0.40;;;-0.20;85.00;;;;;;5036606;28;20398;-73
2023/04/04 01:01:30;;;;;;;0.40;0.40;;;-0.30;85.10;;;;;;5036314;28;20203;-73
2023/04/04 01:03:56;;;;;;;0.60;0.60;;;-0.10;85.70;;;;;;5036208;28;20201;-73
2023/04/04 01:06:22;;;;;;;0.40;0.40;;;0.00;85.30;;;;;;5036389;28;20182;-73
2023/04/04 01:08:50;;;;;;;0.30;0.30;;;0.00;85.20;;;;;;5036332;28;20562;-73
2023/04/04 01:11:15;;;;;;;0.40;0.40;;;0.90;86.30;;;;;;5036020;28;20256;-73
2023/04/04 01:13:42;;;;;;;0.40;0.40;;;0.10;85.50;;;;;;5036041;28;20580;-73
2023/04/04 01:16:08;;;;;;;0.85;0.85;;;0.10;84.20;;;;;;5036076;28;20175;-73
2023/04/04 01:18:36;;;;;;;1.43;1.33;;;0.10;85.70;;;;;;5036090;28;20177;-73
2023/04/04 01:21:06;;;;;;;0.55;0.55;;;-0.10;85.80;;;;;;5036085;28;20221;-73
2023/04/04 01:23:43;;;;;;;0.70;0.70;;;0.20;84.50;;;;;;5018187;28;20514;-73
2023/04/04 01:26:09;;;;;;;0.40;0.40;;;0.20;84.80;;;;;;5036077;28;20228;-73
2023/04/04 01:28:35;;;;;;;0.40;0.40;;;0.20;84.40;;;;;;5035826;28;20531;-73
2023/04/04 01:31:02;;;;;;;0.40;0.40;;;0.30;84.40;;;;;;5017929;28;20195;-73
2023/04/04 01:33:34;;;;;;;0.40;0.40;;;0.40;84.50;;;;;;5035730;28;20170;-72
2023/04/04 01:36:24;;;;;;;0.40;0.40;;;0.30;84.30;;;;;;5035095;28;20523;-73
2023/04/04 01:39:01;;;;;;;1.75;0.65;;;0.20;83.90;;;;;;5035894;28;20167;-73
2023/04/04 01:41:31;;;;;;;0.60;0.60;;;0.20;85.70;;;;;;5035947;28;20219;-73
2023/04/04 01:43:57;;;;;;;0.30;0.30;;;0.30;84.90;;;;;;5035623;28;20193;-73
2023/04/04 01:46:23;;;;;;;0.40;0.40;;;0.30;84.10;;;;;;5035750;28;20237;-73
2023/04/04 01:48:49;;;;;;;0.30;0.30;;;0.30;84.40;;;;;;5035703;28;20637;-73
2023/04/04 01:51:15;;;;;;;0.30;0.30;;;0.20;83.90;;;;;;5035507;28;20263;-73
2023/04/04 01:53:40;;;;;;;0.40;0.40;;;-0.10;83.20;;;;;;5017462;28;20651;-73
2023/04/04 01:56:06;;;;;;;0.40;0.40;;;-0.40;84.30;;;;;;5035405;28;20175;-72
2023/04/04 01:58:32;;;;;;;0.63;0.63;;;-0.50;84.50;;;;;;5035378;28;20245;-72
2023/04/04 02:00:57;;;;;;;0.30;0.30;;;-0.40;84.10;;;;;;5035174;28;20199;-73
2023/04/04 02:03:23;;;;;;;0.50;0.50;;;-0.40;86.20;;;;;;5035272;28;20174;-73
2023/04/04 02:05:49;;;;;;;0.60;0.60;;;-0.40;86.00;;;;;;5035339;28;20536;-73
2023/04/04 02:08:14;;;;;;;0.30;0.30;;;-0.20;85.40;;;;;;5035112;28;20175;-73
2023/04/04 02:10:40;;;;;;;0.40;0.40;;;-0.40;86.10;;;;;;5034841;28;20229;-73
2023/04/04 02:13:06;;;;;;;0.30;0.30;;;-0.40;85.20;;;;;;5034938;28;20182;-73
2023/04/04 02:15:35;;;;;;;0.40;0.40;;;-0.50;87.00;;;;;;5035195;28;20416;-73
2023/04/04 02:18:01;;;;;;;0.80;0.80;;;-0.50;85.70;;;;;;5035135;28;20175;-73
2023/04/04 02:20:26;;;;;;;0.60;0.47;;;-0.60;85.30;;;;;;5035020;28;20222;-73
2023/04/04 02:22:53;;;;;;;1.53;1.13;;;-0.60;85.50;;;;;;5035153;28;20210;-73
2023/04/04 02:25:24;;;;;;;0.40;0.40;;;-0.50;84.80;;;;;;5034891;28;20170;-73
2023/04/04 02:27:49;;;;;;;0.40;0.40;;;2.20;87.80;;;;;;5034977;28;20176;-73
2023/04/04 02:30:15;;;;;;;0.60;0.50;;;-0.30;84.90;;;;;;5034815;28;20612;-73
2023/04/04 02:32:41;;;;;;;0.60;0.60;;;-0.40;83.30;;;;;;5034694;28;20437;-73
2023/04/04 02:35:07;;;;;;;0.40;0.40;;;-0.40;83.00;;;;;;5034564;28;20229;-73
2023/04/04 02:37:33;;;;;;;0.30;0.30;;;-0.50;83.60;;;;;;5034830;28;20171;-73
2023/04/04 02:39:59;;;;;;;0.40;0.40;;;-0.50;83.20;;;;;;5034679;28;20425;-73
2023/04/04 02:42:25;;;;;;;0.40;0.40;;;-0.60;83.40;;;;;;5034494;28;20174;-73
2023/04/04 02:44:50;;;;;;;0.30;0.30;;;-0.50;83.20;;;;;;5016684;28;20646;-73
2023/04/04 02:47:16;;;;;;;0.63;0.63;;;-0.60;82.50;;;;;;5034603;28;20178;-73
2023/04/04 02:49:42;;;;;;;0.40;0.40;;;-0.70;82.80;;;;;;5034417;28;20735;-73
2023/04/04 02:52:07;;;;;;;0.40;0.40;;;-0.70;84.10;;;;;;5034272;28;20251;-73
2023/04/04 02:54:33;;;;;;;0.30;0.30;;;-0.90;83.30;;;;;;5034159;28;20175;-73
2023/04/04 02:56:59;;;;;;;0.30;0.30;;;-0.80;83.30;;;;;;5034334;28;20166;-72
2023/04/04 02:59:24;;;;;;;0.30;0.30;;;-0.80;88.30;;;;;;5034387;28;20540;-73
2023/04/04 03:01:50;;;;;;;0.50;0.50;;;-0.90;82.80;;;;;;5034195;28;20170;-72
2023/04/04 03:04:18;;;;;;;1.80;1.80;;;-0.70;82.10;;;;;;5033949;28;20250;-73
2023/04/04 03:06:44;;;;;;;0.40;0.40;;;-0.60;82.30;;;;;;5034025;28;20167;-73
2023/04/04 03:09:10;;;;;;;0.30;0.30;;;-0.50;81.00;;;;;;5033884;28;20171;-74
2023/04/04 03:11:36;;;;;;;0.40;0.40;;;-0.60;81.40;;;;;;5033957;28;20563;-73
2023/04/04 03:14:01;;;;;;;0.60;0.60;;;-0.60;81.80;;;;;;5033818;28;20164;-73
2023/04/04 03:16:28;;;;;;;0.40;0.40;;;-0.60;82.60;;;;;;5034094;28;20167;-73
2023/04/04 03:18:54;;;;;;;0.40;0.40;;;-0.70;81.30;;;;;;5033926;28;20726;-73
2023/04/04 03:21:20;;;;;;;0.38;0.38;;;-0.70;81.30;;;;;;5033792;28;20206;-73
2023/04/04 03:23:46;;;;;;;0.30;0.30;;;-0.80;80.40;;;;;;5033639;28;20171;-72
2023/04/04 03:26:11;;;;;;;0.73;0.73;;;-0.90;81.00;;;;;;5033778;28;20412;-73
2023/04/04 03:28:37;;;;;;;0.30;0.30;;;-0.80;83.00;;;;;;5033768;28;20175;-73
2023/04/04 03:31:05;;;;;;;1.67;0.93;;;-0.80;81.00;;;;;;5033668;28;20198;-73
2023/04/04 03:33:32;;;;;;;1.35;0.75;;;-0.70;80.30;;;;;;5033909;28;20170;-73
2023/04/04 03:35:58;;;;;;;0.40;0.40;;;-0.60;81.40;;;;;;5033636;28;20179;-72
2023/04/04 03:38:24;;;;;;;0.50;0.50;;;-0.90;78.50;;;;;;5033520;28;20171;-73
2023/04/04 03:40:50;;;;;;;2.47;0.63;;;-1.00;79.40;;;;;;5033394;28;20194;-73
2023/04/04 03:43:16;;;;;;;0.40;0.40;;;-0.90;79.30;;;;;;5033362;28;20163;-73
2023/04/04 03:45:42;;;;;;;0.50;0.50;;;-1.00;79.20;;;;;;5033463;28;20577;-72
2023/04/04 03:48:10;;;;;;;0.40;0.40;;;-1.00;78.60;;;;;;5033409;28;20631;-72
2023/04/04 03:50:36;;;;;;;0.40;0.40;;;-1.10;79.70;;;;;;5033251;28;20194;-73
2023/04/04 03:53:02;;;;;;;0.40;0.40;;;-1.00;79.60;;;;;;5033114;28;20194;-73
2023/04/04 03:55:27;;;;;;;0.43;0.43;;;-1.00;80.30;;;;;;5015688;28;20171;-73
2023/04/04 03:57:53;;;;;;;0.40;0.40;;;-0.80;79.50;;;;;;5033068;28;20406;-73
2023/04/04 04:00:19;;;;;;;0.40;0.40;;;-0.80;78.90;;;;;;5033066;28;20193;-72
2023/04/04 04:02:47;;;;;;;0.40;0.40;;;-0.80;79.10;;;;;;5033186;28;20250;-73
2023/04/04 04:05:13;;;;;;;0.45;0.45;;;0.50;79.80;;;;;;5033141;28;20671;-72
2023/04/04 04:07:42;;;;;;;0.80;0.80;;;-0.90;78.60;;;;;;5033027;28;20249;-73
2023/04/04 04:10:08;;;;;;;0.40;0.40;;;-0.70;78.80;;;;;;5032936;28;20202;-72
2023/04/04 04:12:34;;;;;;;0.70;0.70;;;-0.80;79.10;;;;;;5033058;28;20194;-72
2023/04/04 04:15:00;;;;;;;0.30;0.30;;;-0.80;78.70;;;;;;5033075;28;20178;-73
2023/04/04 04:17:26;;;;;;;1.50;0.88;;;-0.80;80.00;;;;;;5033279;28;20657;-73
2023/04/04 04:19:52;;;;;;;0.40;0.40;;;-0.70;81.90;;;;;;5033195;28;20187;-73
2023/04/04 04:22:17;;;;;;;0.30;0.30;;;-0.60;82.20;;;;;;5033029;28;20410;-73
2023/04/04 04:24:43;;;;;;;0.40;0.40;;;-0.50;79.70;;;;;;5033008;28;20566;-73
2023/04/04 04:27:08;;;;;;;0.37;0.37;;;-0.50;78.40;;;;;;5033236;28;20197;-73
2023/04/04 04:29:34;;;;;;;0.30;0.30;;;-0.40;91.70;;;;;;5033125;28;20198;-73
2023/04/04 04:32:00;;;;;;;0.60;0.60;;;-0.50;78.00;;;;;;5032868;28;20194;-72
2023/04/04 04:34:26;;;;;;;4.43;1.05;;;-0.60;78.50;;;;;;5032762;28;20167;-73
2023/04/04 04:36:52;;;;;;;1.10;1.00;;;-0.70;78.60;;;;;;5033101;28;20183;-73
2023/04/04 04:39:18;;;;;;;0.32;0.32;;;-0.70;80.40;;;;;;5032991;28;20171;-73
2023/04/04 04:41:43;;;;;;;1.13;1.07;;;-0.70;79.00;;;;;;5032838;28;20321;-72
2023/04/04 04:44:09;;;;;;;0.77;0.77;;;-0.80;79.60;;;;;;5032708;28;20175;-72
2023/04/04 04:46:35;;;;;;;1.17;1.03;;;-1.00;80.50;;;;;;5032787;28;20235;-72
2023/04/04 04:49:00;;;;;;;0.40;0.40;;;-1.00;81.80;;;;;;5032845;28;20175;-73
2023/04/04 04:51:26;;;;;;;0.40;0.40;;;-1.10;81.50;;;;;;5032658;28;20203;-73
2023/04/04 04:53:51;;;;;;;0.70;0.70;;;-1.00;81.10;;;;;;5015028;28;20167;-72
2023/04/04 04:56:17;;;;;;;0.40;0.40;;;-1.00;81.30;;;;;;5032944;28;20171;-72
2023/04/04 04:58:44;;;;;;;0.40;0.40;;;-1.20;81.90;;;;;;5032830;28;20538;-72
2023/04/04 05:01:09;;;;;;;0.30;0.30;;;-1.30;81.40;;;;;;5032578;28;20197;-73
2023/04/04 05:03:35;;;;;;;1.03;1.03;;;-1.40;83.50;;;;;;5032607;28;20175;-73
2023/04/04 05:06:01;;;;;;;0.40;0.40;;;-1.40;83.60;;;;;;5032854;28;20174;-73
2023/04/04 05:08:26;;;;;;;0.40;0.40;;;-1.40;84.40;;;;;;5032573;28;20305;-72
2023/04/04 05:10:53;;;;;;;0.40;0.40;;;-1.10;84.30;;;;;;5033853;28;20655;-73
2023/04/04 05:13:19;;;;;;;0.50;0.50;;;-1.30;82.70;;;;;;5035977;28;20254;-72
2023/04/04 05:15:46;;;;;;;0.90;0.90;;;-1.40;82.90;;;;;;5036381;28;20258;-72
2023/04/04 05:18:12;;;;;;;0.40;0.40;;;-1.30;83.20;;;;;;5036136;28;20206;-72
2023/04/04 05:20:37;;;;;;;0.60;0.60;;;-1.00;84.20;;;;;;5036130;28;20226;-73
2023/04/04 05:23:03;;;;;;;0.40;0.40;;;-0.90;84.00;;;;;;5035993;28;20179;-73
2023/04/04 05:25:29;;;;;;;0.50;0.50;;;-0.90;83.60;;;;;;5036117;28;20175;-73
2023/04/04 05:27:56;;;;;;;0.40;0.40;;;-0.80;84.00;;;;;;5036049;28;20230;-73
2023/04/04 05:30:22;;;;;;;0.40;0.40;;;-0.80;83.40;;;;;;5036290;28;20210;-73
2023/04/04 05:32:50;;;;;;;0.40;0.40;;;-0.90;83.00;;;;;;5035608;28;20245;-73
2023/04/04 05:35:15;;;;;;;0.52;0.52;;;-0.90;83.00;;;;;;5036161;28;20406;-73
2023/04/04 05:37:41;;;;;;;2.10;2.10;;;-0.90;83.20;;;;;;5035870;28;20193;-73
2023/04/04 05:40:07;;;;;;;1.00;1.00;;;-0.90;83.00;;;;;;5035843;28;20187;-73
2023/04/04 05:42:33;;;;;;;1.50;1.50;;;-0.90;82.90;;;;;;5035611;28;20176;-72
2023/04/04 05:44:59;;;;;;;0.53;0.53;;;-0.80;83.50;;;;;;5035483;28;20179;-72
2023/04/04 05:47:24;;;;;;;0.40;0.40;;;-0.70;82.90;;;;;;5035603;28;20233;-72
2023/04/04 05:49:50;;;;;;;0.40;0.40;;;-0.60;82.30;;;;;;5035514;28;20195;-73
2023/04/04 05:52:15;;;;;;;0.37;0.37;;;-0.70;81.30;;;;;;5035399;28;20245;-73
2023/04/04 05:54:41;;;;;;;0.30;0.30;;;-0.90;81.10;;;;;;5035207;28;20697;-72
2023/04/04 05:57:07;;;;;;;0.50;0.50;;;-1.30;81.40;;;;;;5035516;28;20627;-72
2023/04/04 05:59:33;;;;;;;0.40;0.40;;;-1.30;88.00;;;;;;5035303;28;20545;-73
2023/04/04 06:01:58;;;;;;;0.50;0.50;;;-1.20;84.40;;;;;;5035637;28;20492;-73
2023/04/04 06:04:24;;;;;;;0.40;0.40;;;-0.90;83.80;;;;;;5035188;28;20183;-72
2023/04/04 06:06:50;;;;;;;0.40;0.40;;;-1.00;83.20;;;;;;5035137;28;20507;-73
2023/04/04 06:09:16;;;;;;;2.00;1.95;;;-1.20;82.00;;;;;;5035149;28;20175;-73
2023/04/04 06:11:42;;;;;;;0.30;0.30;;;-1.30;81.80;;;;;;5034992;28;20209;-72
2023/04/04 06:14:07;;;;;;;0.40;0.40;;;-1.10;82.70;;;;;;5034948;28;20189;-73
2023/04/04 06:16:34;;;;;;;1.83;1.73;;;-1.00;80.80;;;;;;5035048;28;20174;-73
2023/04/04 06:19:00;;;;;;;0.30;0.30;;;-0.70;81.00;;;;;;5035338;28;20288;-73
2023/04/04 06:21:25;;;;;;;0.40;0.40;;;-0.30;82.50;;;;;;5034564;28;20200;-73
2023/04/04 06:23:51;;;;;;;0.70;0.70;;;0.20;80.30;;;;;;5034783;28;20167;-73
2023/04/04 06:26:17;;;;;;;0.30;0.30;;;0.60;78.30;;;;;;5035014;28;20414;-73
2023/04/04 06:28:47;;;;;;;0.40;0.40;;;0.60;76.60;;;;;;5034779;28;20322;-72
2023/04/04 06:31:13;;;;;;;0.68;0.68;;;0.10;76.10;;;;;;5034656;28;20195;-72
2023/04/04 06:33:38;;;;;;;0.40;0.40;;;0.10;76.00;;;;;;5034660;28;20694;-73
2023/04/04 06:36:05;;;;;;;0.40;0.40;;;0.50;76.30;;;;;;5017014;28;20200;-73
2023/04/04 06:38:30;;;;;;;0.98;0.98;;;0.90;76.10;;;;;;5034797;28;20201;-73
2023/04/04 06:40:56;;;;;;;0.30;0.30;;;1.30;75.00;;;;;;5034625;28;20680;-73
2023/04/04 06:43:22;;;;;;;0.60;0.60;;;1.50;72.90;;;;;;5034342;28;20245;-72
2023/04/04 06:45:48;;;;;;;0.30;0.30;;;1.30;73.30;;;;;;5034430;28;20259;-73
2023/04/04 06:48:14;;;;;;;0.30;0.30;;;0.90;73.20;;;;;;5034295;28;20259;-73
2023/04/04 06:50:40;;;;;;;0.40;0.40;;;0.80;74.00;;;;;;5033924;28;20227;-73
2023/04/04 06:53:06;;;;;;;0.40;0.40;;;0.90;74.80;;;;;;5034631;28;20654;-73
2023/04/04 06:55:33;;;;;;;0.30;0.30;;;1.20;72.70;;;;;;5034426;28;20173;-75
2023/04/04 06:57:58;;;;;;;0.40;0.40;;;1.50;72.40;;;;;;5034842;28;20170;-70
2023/04/04 07:00:24;;;;;;;0.80;0.80;;;2.40;85.80;;;;;;5034475;28;20258;-72
2023/04/04 07:02:59;;;;;;;0.50;0.50;;;3.10;70.40;;;;;;5034425;28;20202;-75
2023/04/04 07:05:26;;;;;;;0.57;0.57;;;3.50;66.90;;;;;;5034767;28;20167;-75
2023/04/04 07:07:55;;;;;;;0.65;0.65;;;3.40;67.80;;;;;;5034724;28;20177;-75
2023/04/04 07:10:24;;;;;;;0.80;0.80;;;3.70;64.60;;;;;;5034192;28;20297;-72
2023/04/04 07:12:51;;;;;;;0.65;0.65;;;3.90;62.80;;;;;;5031787;28;20214;-72
2023/04/04 07:15:16;;;;;;;1.07;1.00;;;4.30;61.80;;;;;;5034289;28;20623;-72
2023/04/04 07:17:42;;;;;;;0.40;0.40;;;4.80;60.00;;;;;;5016653;28;20403;-72
2023/04/04 07:20:08;;;;;;;0.50;0.50;;;5.60;60.50;;;;;;5034103;28;20194;-72
2023/04/04 07:22:38;;;;;;;0.30;0.30;;;7.10;58.30;;;;;;5015903;28;20266;-72
2023/04/04 07:25:05;;;;;;;0.40;0.40;;;8.10;53.50;;;;;;5033639;28;20175;-72
2023/04/04 07:27:30;;;;;;;0.40;0.40;;;9.20;51.60;;;;;;5034080;28;20409;-72
2023/04/04 07:29:56;;;;;;;1.50;1.40;;;10.10;46.30;;;;;;5033641;28;20784;-73
2023/04/04 07:32:22;;;;;;;1.37;1.27;;;10.30;45.00;;;;;;5033569;28;20202;-73
2023/04/04 07:34:49;;;;;;;1.17;0.80;;;11.30;42.50;;;;;;5033049;28;20175;-72
2023/04/04 07:37:15;;;;;;;0.70;0.70;;;11.30;40.20;;;;;;5033725;28;20217;-73
2023/04/04 07:39:40;;;;;;;3.47;3.27;;;10.60;42.70;;;;;;5033459;28;20406;-73
2023/04/04 07:42:06;;;;;;;0.60;0.60;;;10.80;39.00;;;;;;5033674;28;20408;-72
2023/04/04 07:44:32;;;;;;;0.40;0.40;;;9.90;40.00;;;;;;5033437;28;20889;-72
2023/04/04 07:46:58;;;;;;;0.57;0.57;;;10.00;39.70;;;;;;5033564;28;20489;-73
2023/04/04 07:49:24;;;;;;;0.77;0.77;;;9.90;40.50;;;;;;5033602;28;20654;-73
2023/04/04 07:51:49;;;;;;;0.70;0.70;;;10.20;40.40;;;;;;5033347;28;20194;-73
2023/04/04 07:54:16;;;;;;;0.60;0.60;;;10.20;39.50;;;;;;5015894;28;20507;-72
2023/04/04 07:56:41;;;;;;;0.70;0.50;;;10.20;40.40;;;;;;5033600;28;20413;-72
2023/04/04 07:59:07;;;;;;;0.30;0.30;;;10.30;39.10;;;;;;5015998;28;20223;-72
2023/04/04 08:01:33;;;;;;;2.53;2.43;;;9.10;41.60;;;;;;5033218;28;20194;-74
2023/04/04 08:03:58;;;;;;;0.60;0.60;;;8.90;42.90;;;;;;5033203;28;20178;-74
2023/04/04 08:06:24;;;;;;;0.50;0.50;;;8.80;42.60;;;;;;5033397;28;20183;-75
2023/04/04 08:08:51;;;;;;;1.47;1.10;;;8.20;42.20;;;;;;5033289;28;20186;-74
2023/04/04 08:11:17;;;;;;;1.40;0.82;;;7.80;43.30;;;;;;5033173;28;20206;-75
2023/04/04 08:13:43;;;;;;;0.95;0.73;;;7.80;44.30;;;;;;5033158;28;20324;-76
2023/04/04 08:16:08;;;;;;;0.60;0.60;;;7.40;45.50;;;;;;5033693;28;20206;-77
2023/04/04 08:18:34;;;;;;;0.80;0.80;;;7.30;46.40;;;;;;5033735;28;20250;-73
2023/04/04 08:21:00;;;;;;;1.23;1.13;;;9.00;46.40;;;;;;5033283;28;20640;-77
2023/04/04 08:23:26;;;;;;;1.60;1.50;;;11.30;42.70;;;;;;5032934;28;20174;-75
2023/04/04 08:25:52;;;;;;;0.60;0.60;;;13.70;38.00;;;;;;5033326;28;20555;-72
2023/04/04 08:28:18;;;;;;;0.53;0.53;;;14.60;35.00;;;;;;5033425;28;20407;-74
2023/04/04 08:30:43;;;;;;;0.67;0.60;;;15.40;36.30;;;;;;5015329;28;20453;-75
2023/04/04 08:33:09;;;;;;;0.50;0.50;;;16.70;34.20;;;;;;5032928;28;20194;-75
2023/04/04 08:35:35;;;;;;;0.70;0.70;;;17.60;29.60;;;;;;5032917;28;20170;-74
2023/04/04 08:38:05;;;;;;;0.43;0.43;;;17.30;28.50;;;;;;5033063;28;20510;-76
2023/04/04 08:40:31;;;;;;;0.50;0.50;;;17.00;28.70;;;;;;5032898;28;20429;-74
2023/04/04 08:42:58;;;;;;;1.43;1.30;;;15.90;29.20;;;;;;5033324;28;20527;-74
2023/04/04 08:45:26;;;;;;;0.50;0.50;;;14.70;29.80;;;;;;5035239;28;20890;-76
2023/04/04 08:47:54;;;;;;;0.37;0.37;;;15.70;31.40;;;;;;5037351;28;20428;-76
2023/04/04 08:50:20;;;;;;;0.53;0.53;;;16.80;29.00;;;;;;5036688;28;20437;-74
2023/04/04 08:52:46;;;;;;;0.50;0.50;;;15.60;28.60;;;;;;5036550;28;20449;-74
2023/04/04 08:55:13;;;;;;;0.70;0.70;;;15.50;30.50;;;;;;5036388;28;20380;-71
2023/04/04 08:57:38;;;;;;;0.60;0.50;;;15.40;36.00;;;;;;5037345;28;20423;-71
2023/04/04 09:00:07;;;;;;;0.90;0.73;;;16.10;35.70;;;;;;5036923;28;20832;-69
2023/04/04 09:02:42;;;;;;;0.60;0.60;;;15.70;31.40;;;;;;5036517;28;20257;-68
2023/04/04 09:05:09;;;;;;;0.50;0.50;;;14.60;30.60;;;;;;5036559;28;20405;-70
2023/04/04 09:07:36;;;;;;;1.10;1.10;;;13.80;31.90;;;;;;5036776;28;20408;-71
2023/04/04 09:10:02;;;;;;;0.90;0.63;;;12.80;32.20;;;;;;5036374;28;20824;-73
2023/04/04 09:12:31;;;;;;;0.67;0.67;;;12.20;32.00;;;;;;5036769;28;20576;-73
2023/04/04 09:14:59;;;;;;;0.57;0.57;;;12.20;29.60;;;;;;5036226;28;20398;-73
2023/04/04 09:17:26;;;;;;;1.60;1.33;;;12.80;27.90;;;;;;5036421;28;20459;-72
2023/04/04 09:19:53;;;;;;;0.70;0.70;;;13.30;28.00;;;;;;5036107;28;20421;-73
2023/04/04 09:22:18;;;;;;;0.40;0.40;;;14.00;26.80;;;;;;5035278;28;20173;-74
2023/04/04 09:24:44;;;;;;;0.40;0.40;;;14.10;27.20;;;;;;5035266;28;20504;-74
2023/04/04 09:27:11;;;;;;;1.17;0.70;;;15.30;27.60;;;;;;5036420;28;20169;-74
2023/04/04 09:29:40;;;;;;;2.10;0.97;;;15.00;28.40;;;;;;5035918;28;20406;-72
2023/04/04 09:32:13;;;;;;;0.40;0.40;;;15.10;26.30;;;;;;5035917;28;20452;-74
2023/04/04 09:34:40;;;;;;;1.00;0.73;;;14.00;25.90;;;;;;5035744;28;20772;-74
2023/04/04 09:37:06;;;;;;;0.67;0.67;;;14.20;28.80;;;;;;5035853;28;20405;-75
2023/04/04 09:39:33;;;;;;;0.30;0.30;;;14.30;31.60;;;;;;5017452;28;20418;-74
2023/04/04 09:42:00;;;;;;;0.60;0.60;;;14.30;28.00;;;;;;5035289;28;20425;-76
2023/04/04 09:44:28;;;;;;;0.87;0.50;;;15.50;29.40;;;;;;5035584;28;20409;-75
2023/04/04 09:47:21;;;;;;;0.63;0.60;;;16.70;28.60;;;;;;5035351;28;20486;-75
2023/04/04 09:49:48;;;;;;;0.77;0.77;;;17.90;26.40;;;;;;5034514;28;20430;-74
2023/04/04 09:52:21;;;;;;;0.53;0.53;;;18.60;26.60;;;;;;5036049;28;20491;-75
2023/04/04 09:54:57;;;;;;;1.03;0.60;;;18.40;26.00;;;;;;5035397;28;20419;-73
2023/04/04 09:57:25;;;;;;;0.70;0.67;;;17.60;27.60;;;;;;5034939;28;20477;-73
2023/04/04 09:59:51;;;;;;;1.00;0.70;;;18.20;26.50;;;;;;5035559;28;20433;-73
2023/04/04 10:02:17;;;;;;;0.50;0.50;;;17.40;25.20;;;;;;5035778;28;20417;-72
2023/04/04 10:04:43;;;;;;;0.30;0.30;;;16.60;26.10;;;;;;5035354;28;20628;-73
2023/04/04 10:07:13;;;;;;;0.40;0.40;;;15.10;26.60;;;;;;5035871;28;20415;-72
2023/04/04 10:09:39;;;;;;;0.50;0.50;;;14.50;31.00;;;;;;5035002;28;20826;-72
2023/04/04 10:12:09;;;;;;;0.60;0.60;;;14.60;26.50;;;;;;5035331;28;20455;-72
2023/04/04 10:14:35;;;;;;;0.87;0.87;;;14.10;26.80;;;;;;5035348;28;20401;-72
2023/04/04 10:17:12;;;;;;;0.60;0.60;;;13.30;27.30;;;;;;5035675;28;20480;-73
2023/04/04 10:19:38;;;;;;;2.30;1.07;;;14.00;31.40;;;;;;5017025;28;21027;-73
2023/04/04 10:22:10;;;;;;;0.80;0.80;;;14.30;29.60;;;;;;5034960;28;20501;-74
2023/04/04 10:24:36;;;;;;;1.13;1.13;;;14.70;27.90;;;;;;5035087;28;20871;-74
2023/04/04 10:27:01;;;;;;;0.40;0.40;;;14.50;28.20;;;;;;5017431;28;20445;-73
2023/04/04 10:29:27;;;;;;;0.63;0.63;;;13.60;30.10;;;;;;5034804;28;20236;-73
2023/04/04 10:32:01;;;;;;;0.40;0.40;;;13.70;29.40;;;;;;5034719;28;20557;-73
2023/04/04 10:34:48;;;;;;;0.60;0.50;;;13.90;28.50;;;;;;5034690;28;20167;-73
2023/04/04 10:37:28;;;;;;;0.40;0.40;;;13.90;27.00;;;;;;5034929;28;20420;-73
2023/04/04 10:40:14;;;;;;;0.50;0.50;;;13.60;28.00;;;;;;5035113;28;20421;-73
2023/04/04 10:42:46;;;;;;;0.50;0.50;;;13.20;28.00;;;;;;5035252;28;20429;-73
2023/04/04 10:45:14;;;;;;;0.70;0.70;;;12.80;31.10;;;;;;5034553;28;20408;-73
2023/04/04 10:47:40;;;;;;;0.40;0.40;;;12.40;29.40;;;;;;5034739;28;20398;-73
2023/04/04 10:50:09;;;;;;;2.37;1.47;;;12.20;31.10;;;;;;5034617;28;20456;-74
2023/04/04 10:52:37;;;;;;;0.50;0.50;;;12.30;30.50;;;;;;5034879;28;20453;-72
2023/04/04 10:55:05;;;;;;;0.80;0.80;;;12.80;31.70;;;;;;5034369;28;20465;-73
2023/04/04 10:57:36;;;;;;;0.40;0.40;;;12.90;29.40;;;;;;5034435;28;20734;-73
2023/04/04 11:00:06;;;;;;;0.93;0.57;;;12.80;29.60;;;;;;5034173;28;20862;-73
2023/04/04 11:02:47;;;;;;;0.50;0.50;;;12.40;29.10;;;;;;5034039;28;20413;-73
2023/04/04 11:05:19;;;;;;;0.70;0.70;;;12.20;29.50;;;;;;5034290;28;20405;-72
2023/04/04 11:07:45;;;;;;;0.38;0.38;;;11.90;30.20;;;;;;5032843;28;20406;-73
2023/04/04 11:10:33;;;;;;;0.55;0.55;;;11.70;32.10;;;;;;5015568;28;20717;-73
2023/04/04 11:13:10;;;;;;;0.68;0.68;;;11.50;30.80;;;;;;5034153;28;20209;-73
2023/04/04 11:16:09;;;;;;;0.73;0.73;;;11.30;31.80;;;;;;5016814;28;20182;-73
2023/04/04 11:18:40;;;;;;;1.58;0.75;;;10.70;32.60;;;;;;5034297;28;20216;-73
2023/04/04 11:21:13;;;;;;;0.50;0.50;;;10.50;35.00;;;;;;5033820;28;20195;-73
2023/04/04 11:23:48;;;;;;;0.40;0.40;;;10.60;37.10;;;;;;5033501;28;20538;-72
2023/04/04 11:26:29;;;;;;;0.95;0.60;;;10.70;34.70;;;;;;5032893;28;20202;-73
2023/04/04 11:29:07;;;;;;;3.70;1.58;;;10.50;32.90;;;;;;5015558;28;20273;-73
2023/04/04 11:31:47;;;;;;;0.40;0.40;;;10.50;32.40;;;;;;5033874;28;20565;-73
2023/04/04 11:34:14;;;;;;;0.30;0.30;;;10.60;32.40;;;;;;5033593;28;20171;-72
2023/04/04 11:36:41;;;;;;;1.50;1.45;;;10.60;30.90;;;;;;5034284;28;20512;-73
2023/04/04 11:39:21;;;;;;;1.77;1.17;;;10.40;30.30;;;;;;5033617;28;20249;-73
2023/04/04 11:42:06;;;;;;;0.40;0.40;;;9.80;30.20;;;;;;5033883;28;20217;-73
2023/04/04 11:44:39;;;;;;;0.75;0.40;;;9.70;32.30;;;;;;5033536;28;20233;-73
2023/04/04 11:47:08;;;;;;;0.80;0.75;;;10.00;33.50;;;;;;5032922;28;20209;-73
2023/04/04 11:49:36;;;;;;;0.50;0.50;;;10.00;31.20;;;;;;5032623;28;20178;-74
2023/04/04 11:52:14;;;;;;;0.88;0.88;;;9.90;31.80;;;;;;5033324;28;20230;-73
2023/04/04 11:54:41;;;;;;;2.05;1.88;;;9.90;33.60;;;;;;5033215;28;20167;-73
2023/04/04 11:57:10;;;;;;;0.40;0.40;;;9.90;32.80;;;;;;5033474;28;20198;-73
2023/04/04 11:59:41;;;;;;;0.65;0.65;;;9.70;37.10;;;;;;5033347;28;20279;-73
2023/04/04 12:02:11;;;;;;;0.50;0.50;;;9.40;31.60;;;;;;5033237;28;20510;-73
2023/04/04 12:04:39;;;;;;;0.50;0.50;;;8.90;31.90;;;;;;5033242;28;20593;-73
2023/04/04 12:07:07;;;;;;;2.92;0.85;;;8.60;33.50;;;;;;5033356;28;20192;-73
2023/04/04 12:09:33;;;;;;;0.30;0.30;;;8.50;38.90;;;;;;5033079;28;20186;-73
2023/04/04 12:11:59;;;;;;;0.40;0.40;;;8.50;33.20;;;;;;5033011;28;20281;-73
2023/04/04 12:14:26;;;;;;;0.83;0.83;;;8.30;31.30;;;;;;5032932;28;20272;-73
2023/04/04 12:16:54;;;;;;;0.40;0.40;;;8.00;30.50;;;;;;5033234;28;20516;-73
2023/04/04 12:19:22;;;;;;;0.40;0.40;;;7.80;31.90;;;;;;5033992;28;20531;-73
2023/04/04 12:21:49;;;;;;;1.10;1.10;;;7.90;31.60;;;;;;5037144;28;20182;-73
2023/04/04 12:24:15;;;;;;;0.35;0.35;;;8.10;32.50;;;;;;5019291;28;20193;-73
2023/04/04 12:26:44;;;;;;;0.40;0.40;;;8.40;34.00;;;;;;5019500;28;20182;-73
2023/04/04 12:29:11;;;;;;;0.85;0.85;;;8.60;32.40;;;;;;5037096;28;20429;-73
2023/04/04 12:31:40;;;;;;;0.70;0.70;;;8.50;33.50;;;;;;5036920;28;20202;-73
2023/04/04 12:34:05;;;;;;;0.70;0.70;;;8.60;35.10;;;;;;5036914;28;20626;-74
2023/04/04 12:36:34;;;;;;;1.37;1.27;;;8.70;33.10;;;;;;5037052;28;20174;-73
2023/04/04 12:39:03;;;;;;;0.60;0.60;;;8.50;34.10;;;;;;5037078;28;20407;-73
2023/04/04 12:41:29;;;;;;;0.60;0.60;;;8.50;33.70;;;;;;5036807;28;20280;-73
2023/04/04 12:44:02;;;;;;;0.40;0.40;;;8.60;35.30;;;;;;5036797;28;20690;-73
2023/04/04 12:46:38;;;;;;;2.28;0.50;;;8.80;34.60;;;;;;5036939;28;20174;-74
2023/04/04 12:49:10;;;;;;;0.65;0.65;;;8.80;34.90;;;;;;5036921;28;20174;-73
2023/04/04 12:51:36;;;;;;;0.63;0.63;;;9.00;33.80;;;;;;5036728;28;20682;-73